createdAt,value
2019-03-24T00:00:11.740Z,49.74
2019-03-24T00:02:41.169Z,50.27
2019-03-24T00:05:10.834Z,50.43
2019-03-24T00:07:40.078Z,50.39
2019-03-24T00:10:09.545Z,49.67
2019-03-24T00:12:38.745Z,49.83
2019-03-24T00:15:08.912Z,49.99
2019-03-24T00:17:38.019Z,50.01
2019-03-24T00:20:10.111Z,49.94
2019-03-24T00:22:40.287Z,50.23
2019-03-24T00:25:09.663Z,49.88
2019-03-24T00:27:38.959Z,50.35
2019-03-24T00:30:10.528Z,50.80
2019-03-24T00:32:39.786Z,51.04
2019-03-24T00:35:09.191Z,51.42
2019-03-24T00:37:38.390Z,51.30
2019-03-24T00:40:08.795Z,51.55
2019-03-24T00:42:38.118Z,51.39
2019-03-24T00:45:11.470Z,51.23
2019-03-24T00:47:40.690Z,51.54
2019-03-24T00:50:10.176Z,51.22
2019-03-24T00:52:39.366Z,51.45
2019-03-24T00:55:09.137Z,51.25
2019-03-24T00:57:38.356Z,51.65
2019-03-24T01:00:09.388Z,51.58
2019-03-24T01:02:38.825Z,51.80
2019-03-24T01:05:08.728Z,51.26
2019-03-24T01:07:38.178Z,51.40
2019-03-24T01:10:08.683Z,51.73
2019-03-24T01:12:37.904Z,51.80
2019-03-24T01:15:08.726Z,51.75
2019-03-24T01:17:38.841Z,52.20
2019-03-24T01:20:10.651Z,52.66
2019-03-24T01:22:42.095Z,52.96
2019-03-24T01:25:11.510Z,52.67
2019-03-24T01:27:40.643Z,52.66
2019-03-24T01:30:10.184Z,52.77
2019-03-24T01:32:39.349Z,52.42
2019-03-24T01:35:08.955Z,52.63
2019-03-24T01:37:38.201Z,52.66
2019-03-24T01:40:08.274Z,52.81
2019-03-24T01:42:37.486Z,52.78
2019-03-24T01:45:08.931Z,52.36
2019-03-24T01:47:38.178Z,52.35
2019-03-24T01:50:08.479Z,51.61
2019-03-24T01:52:37.736Z,51.55
2019-03-24T01:55:07.164Z,51.74
2019-03-24T01:57:36.331Z,52.12
2019-03-24T02:00:08.111Z,52.28
2019-03-24T02:02:37.246Z,52.75
2019-03-24T02:05:07.243Z,53.24
2019-03-24T02:07:36.503Z,54.15
2019-03-24T02:10:08.278Z,54.63
2019-03-24T02:12:37.414Z,54.76
2019-03-24T02:15:10.605Z,54.43
2019-03-24T02:17:39.803Z,54.18
2019-03-24T02:20:09.719Z,54.25
2019-03-24T02:22:38.909Z,54.04
2019-03-24T02:25:08.992Z,54.28
2019-03-24T02:27:38.303Z,54.18
2019-03-24T02:30:09.870Z,53.81
2019-03-24T02:32:39.086Z,53.62
2019-03-24T02:35:08.403Z,54.54
2019-03-24T02:37:37.569Z,54.52
2019-03-24T02:40:08.281Z,54.46
2019-03-24T02:42:37.492Z,53.96
2019-03-24T02:45:07.959Z,54.37
2019-03-24T02:47:37.106Z,54.13
2019-03-24T02:50:08.276Z,54.10
2019-03-24T02:52:37.447Z,54.41
2019-03-24T02:55:10.048Z,54.73
2019-03-24T02:57:39.180Z,54.87
2019-03-24T03:00:12.006Z,55.26
2019-03-24T03:02:41.224Z,54.93
2019-03-24T03:05:11.157Z,55.17
2019-03-24T03:07:40.372Z,54.69
2019-03-24T03:10:10.186Z,55.35
2019-03-24T03:12:39.390Z,56.00
2019-03-24T03:15:09.837Z,56.61
2019-03-24T03:17:39.042Z,56.61
2019-03-24T03:20:08.953Z,56.22
2019-03-24T03:22:38.295Z,56.07
2019-03-24T03:25:08.313Z,55.70
2019-03-24T03:27:37.736Z,55.39
2019-03-24T03:30:09.060Z,55.45
2019-03-24T03:32:38.283Z,55.39
2019-03-24T03:35:09.093Z,55.39
2019-03-24T03:37:38.280Z,55.67
2019-03-24T03:40:09.592Z,55.92
2019-03-24T03:42:39.902Z,56.04
2019-03-24T03:45:10.853Z,56.04
2019-03-24T03:47:40.471Z,56.37
2019-03-24T03:50:10.282Z,56.49
2019-03-24T03:52:39.456Z,55.80
2019-03-24T03:55:08.815Z,56.03
2019-03-24T03:57:37.950Z,55.61
2019-03-24T04:00:09.077Z,56.40
2019-03-24T04:02:38.277Z,56.06
2019-03-24T04:05:07.484Z,56.33
2019-03-24T04:07:36.688Z,56.54
2019-03-24T04:10:06.306Z,56.52
2019-03-24T04:12:35.450Z,56.46
2019-03-24T04:15:07.473Z,56.04
2019-03-24T04:17:36.693Z,56.48
2019-03-24T04:20:06.814Z,56.48
2019-03-24T04:22:36.016Z,56.82
2019-03-24T04:25:06.824Z,56.50
2019-03-24T04:27:35.975Z,56.49
2019-03-24T04:30:07.292Z,56.25
2019-03-24T04:32:36.544Z,56.25
2019-03-24T04:35:07.509Z,56.47
2019-03-24T04:37:36.792Z,56.67
2019-03-24T04:40:07.710Z,56.81
2019-03-24T04:42:36.830Z,56.98
2019-03-24T04:45:06.963Z,56.82
2019-03-24T04:47:36.101Z,57.17
2019-03-24T04:50:08.226Z,57.44
2019-03-24T04:52:37.477Z,57.38
2019-03-24T04:55:09.856Z,57.23
2019-03-24T04:57:39.075Z,57.30
2019-03-24T05:00:10.323Z,57.09
2019-03-24T05:02:39.504Z,56.80
2019-03-24T05:05:09.029Z,56.90
2019-03-24T05:07:38.780Z,56.33
2019-03-24T05:10:09.341Z,56.62
2019-03-24T05:12:38.409Z,56.24
2019-03-24T05:15:07.854Z,56.24
2019-03-24T05:17:37.003Z,55.84
2019-03-24T05:20:07.220Z,55.79
2019-03-24T05:22:36.383Z,55.85
2019-03-24T05:25:06.018Z,55.91
2019-03-24T05:27:35.153Z,55.60
2019-03-24T05:30:06.851Z,55.21
2019-03-24T05:32:36.055Z,55.19
2019-03-24T05:35:07.575Z,54.94
2019-03-24T05:37:36.842Z,54.50
2019-03-24T05:40:06.470Z,54.26
2019-03-24T05:42:35.680Z,53.86
2019-03-24T05:45:06.628Z,53.77
2019-03-24T05:47:37.406Z,53.71
2019-03-24T05:50:08.522Z,53.28
2019-03-24T05:52:37.779Z,52.92
2019-03-24T05:55:07.681Z,52.77
2019-03-24T05:57:36.750Z,52.51
2019-03-24T06:00:07.787Z,52.43
2019-03-24T06:02:36.921Z,52.65
2019-03-24T06:05:06.930Z,52.94
2019-03-24T06:07:36.103Z,52.53
2019-03-24T06:10:07.378Z,51.94
2019-03-24T06:12:36.602Z,53.46
2019-03-24T06:15:08.328Z,52.87
2019-03-24T06:17:47.169Z,53.02
2019-03-24T06:20:08.692Z,53.05
2019-03-24T06:22:37.915Z,52.62
2019-03-24T06:25:10.121Z,52.36
2019-03-24T06:27:39.334Z,51.76
2019-03-24T06:30:09.190Z,51.09
2019-03-24T06:32:38.416Z,51.24
2019-03-24T06:35:07.626Z,50.79
2019-03-24T06:37:36.895Z,50.47
2019-03-24T06:40:06.819Z,50.29
2019-03-24T06:42:35.945Z,49.71
2019-03-24T06:45:07.306Z,49.71
2019-03-24T06:47:36.523Z,49.14
2019-03-24T06:50:07.644Z,48.63
2019-03-24T06:52:36.907Z,48.57
2019-03-24T06:55:06.529Z,48.06
2019-03-24T06:57:35.753Z,47.69
2019-03-24T07:00:07.010Z,47.69
2019-03-24T07:02:36.525Z,47.02
2019-03-24T07:05:06.809Z,46.41
2019-03-24T07:07:36.059Z,45.53
2019-03-24T07:10:07.372Z,45.53
2019-03-24T07:12:36.686Z,45.16
2019-03-24T07:15:07.730Z,45.23
2019-03-24T07:17:37.730Z,44.02
2019-03-24T07:20:07.671Z,42.73
2019-03-24T07:22:36.931Z,42.45
2019-03-24T07:25:07.409Z,42.29
2019-03-24T07:27:36.613Z,42.04
2019-03-24T07:30:08.189Z,41.31
2019-03-24T07:32:37.409Z,40.69
2019-03-24T07:35:08.035Z,39.94
2019-03-24T07:37:37.327Z,40.24
2019-03-24T07:40:08.808Z,40.28
2019-03-24T07:42:38.067Z,39.15
2019-03-24T07:45:08.670Z,37.17
2019-03-24T07:47:37.885Z,38.05
2019-03-24T07:50:09.501Z,37.21
2019-03-24T07:52:38.988Z,37.09
2019-03-24T07:55:08.514Z,37.55
2019-03-24T07:57:37.736Z,36.78
2019-03-24T08:00:09.212Z,36.36
2019-03-24T08:02:38.365Z,33.34
2019-03-24T08:05:07.837Z,33.88
2019-03-24T08:07:37.222Z,31.85
2019-03-24T08:10:07.247Z,31.57
2019-03-24T08:12:36.524Z,32.40
2019-03-24T08:15:06.337Z,31.98
2019-03-24T08:17:35.719Z,32.13
2019-03-24T08:20:06.669Z,31.99
2019-03-24T08:22:35.891Z,32.08
2019-03-24T08:25:06.722Z,32.22
2019-03-24T08:27:35.942Z,32.03
2019-03-24T08:30:06.729Z,33.09
2019-03-24T08:32:35.887Z,32.27
2019-03-24T08:35:06.697Z,31.99
2019-03-24T08:37:35.913Z,31.78
2019-03-24T08:40:07.487Z,31.35
2019-03-24T08:42:36.751Z,30.82
2019-03-24T08:45:07.064Z,29.72
2019-03-24T08:47:36.209Z,29.00
2019-03-24T08:50:07.816Z,28.62
2019-03-24T08:52:37.127Z,28.68
2019-03-24T08:55:06.863Z,28.93
2019-03-24T08:57:36.124Z,29.45
2019-03-24T09:00:06.950Z,29.39
2019-03-24T09:02:36.112Z,28.50
2019-03-24T09:05:06.657Z,28.14
2019-03-24T09:07:36.006Z,27.15
2019-03-24T09:10:07.449Z,27.77
2019-03-24T09:12:36.722Z,27.28
2019-03-24T09:15:07.847Z,27.51
2019-03-24T09:17:37.180Z,26.95
2019-03-24T09:20:08.368Z,26.79
2019-03-24T09:22:37.462Z,27.29
2019-03-24T09:25:07.995Z,27.26
2019-03-24T09:27:37.289Z,26.34
2019-03-24T09:30:12.200Z,26.25
2019-03-24T09:32:41.372Z,26.07
2019-03-24T09:35:10.575Z,26.27
2019-03-24T09:37:39.788Z,26.05
2019-03-24T09:40:11.908Z,25.81
2019-03-24T09:42:41.030Z,26.25
2019-03-24T09:45:10.229Z,26.24
2019-03-24T09:47:39.434Z,26.13
2019-03-24T09:50:08.973Z,25.70
2019-03-24T09:52:38.126Z,25.88
2019-03-24T09:55:07.736Z,24.97
2019-03-24T09:57:36.986Z,23.98
2019-03-24T10:00:06.505Z,23.72
2019-03-24T10:02:35.644Z,23.31
2019-03-24T10:05:05.991Z,23.62
2019-03-24T10:07:35.241Z,22.66
2019-03-24T10:10:06.663Z,23.10
2019-03-24T10:12:35.851Z,23.20
2019-03-24T10:15:08.224Z,24.42
2019-03-24T10:17:37.481Z,24.48
2019-03-24T10:20:07.161Z,24.37
2019-03-24T10:22:37.212Z,23.61
2019-03-24T10:25:07.728Z,23.35
2019-03-24T10:27:37.002Z,21.98
2019-03-24T10:30:08.615Z,21.35
2019-03-24T10:32:37.861Z,21.13
2019-03-24T10:35:08.709Z,20.80
2019-03-24T10:37:37.958Z,19.50
2019-03-24T10:40:07.865Z,19.83
2019-03-24T10:42:37.887Z,19.71
2019-03-24T10:45:08.299Z,19.06
2019-03-24T10:47:37.509Z,18.28
2019-03-24T10:50:09.003Z,17.84
2019-03-24T10:52:38.256Z,17.70
2019-03-24T10:55:11.616Z,17.33
2019-03-24T10:57:40.960Z,17.08
2019-03-24T11:00:12.737Z,17.72
2019-03-24T11:02:42.020Z,18.14
2019-03-24T11:05:11.581Z,18.44
2019-03-24T11:07:40.813Z,18.29
2019-03-24T11:10:11.127Z,18.62
2019-03-24T11:12:40.379Z,18.23
2019-03-24T11:15:10.989Z,18.32
2019-03-24T11:17:40.214Z,18.26
2019-03-24T11:20:10.084Z,18.64
2019-03-24T11:22:39.308Z,18.81
2019-03-24T11:25:10.181Z,18.25
2019-03-24T11:27:39.517Z,18.14
2019-03-24T11:30:11.630Z,17.30
2019-03-24T11:32:41.740Z,16.89
2019-03-24T11:35:11.766Z,15.94
2019-03-24T11:37:40.966Z,15.54
2019-03-24T11:40:11.256Z,14.39
2019-03-24T11:42:40.549Z,13.51
2019-03-24T11:45:11.271Z,12.97
2019-03-24T11:47:40.502Z,13.46
2019-03-24T11:50:10.567Z,13.70
2019-03-24T11:52:39.904Z,13.58
2019-03-24T11:55:09.866Z,13.23
2019-03-24T11:57:39.352Z,13.73
2019-03-24T12:00:14.261Z,14.38
2019-03-24T12:02:43.485Z,14.33
2019-03-24T12:05:12.853Z,14.41
2019-03-24T12:07:42.070Z,14.20
2019-03-24T12:10:11.846Z,14.12
2019-03-24T12:12:41.175Z,14.18
2019-03-24T12:15:11.006Z,13.40
2019-03-24T12:17:40.143Z,13.72
2019-03-24T12:20:10.088Z,13.32
2019-03-24T12:22:39.325Z,13.46
2019-03-24T12:25:09.442Z,13.26
2019-03-24T12:27:38.778Z,12.88
2019-03-24T12:30:09.402Z,12.79
2019-03-24T12:32:38.622Z,12.43
2019-03-24T12:35:09.488Z,13.37
2019-03-24T12:37:38.688Z,13.17
2019-03-24T12:40:10.288Z,13.70
2019-03-24T12:42:39.830Z,14.04
2019-03-24T12:45:10.387Z,13.84
2019-03-24T12:47:39.628Z,14.23
2019-03-24T12:50:10.373Z,13.91
2019-03-24T12:52:39.686Z,13.55
2019-03-24T12:55:09.643Z,13.51
2019-03-24T12:57:38.898Z,13.53
2019-03-24T13:00:10.610Z,13.22
2019-03-24T13:02:40.079Z,13.05
2019-03-24T13:05:10.361Z,12.99
2019-03-24T13:07:39.593Z,12.55
2019-03-24T13:10:09.935Z,13.15
2019-03-24T13:12:39.175Z,13.50
2019-03-24T13:15:09.504Z,13.08
2019-03-24T13:17:38.730Z,12.77
2019-03-24T13:20:19.530Z,12.53
2019-03-24T13:22:41.114Z,12.33
2019-03-24T13:25:10.626Z,12.35
2019-03-24T13:27:39.872Z,12.07
2019-03-24T13:30:10.479Z,12.12
2019-03-24T13:32:39.675Z,11.93
2019-03-24T13:35:08.897Z,12.35
2019-03-24T13:37:38.205Z,12.67
2019-03-24T13:40:07.700Z,13.18
2019-03-24T13:42:36.952Z,12.73
2019-03-24T13:45:07.257Z,12.98
2019-03-24T13:47:37.487Z,12.54
2019-03-24T13:50:07.993Z,12.58
2019-03-24T13:52:37.826Z,12.57
2019-03-24T13:55:08.137Z,12.29
2019-03-24T13:57:37.323Z,12.13
2019-03-24T14:00:09.896Z,12.14
2019-03-24T14:02:39.130Z,11.76
2019-03-24T14:05:08.344Z,11.83
2019-03-24T14:07:37.606Z,11.79
2019-03-24T14:10:08.067Z,11.48
2019-03-24T14:12:37.209Z,11.23
2019-03-24T14:15:07.359Z,11.08
2019-03-24T14:17:36.695Z,11.19
2019-03-24T14:20:09.484Z,11.10
2019-03-24T14:22:38.688Z,11.40
2019-03-24T14:25:08.541Z,11.63
2019-03-24T14:27:37.753Z,11.85
2019-03-24T14:30:08.626Z,12.16
2019-03-24T14:32:37.865Z,12.56
2019-03-24T14:35:07.389Z,12.33
2019-03-24T14:37:36.604Z,11.69
2019-03-24T14:40:07.468Z,11.74
2019-03-24T14:42:36.667Z,11.68
2019-03-24T14:45:09.895Z,11.62
2019-03-24T14:47:39.183Z,11.32
2019-03-24T14:50:09.302Z,11.20
2019-03-24T14:52:38.506Z,10.99
2019-03-24T14:55:08.027Z,11.33
2019-03-24T14:57:37.263Z,11.16
2019-03-24T15:00:11.175Z,11.36
2019-03-24T15:02:40.971Z,11.42
2019-03-24T15:05:10.657Z,11.35
2019-03-24T15:07:39.959Z,11.73
2019-03-24T15:10:09.753Z,11.67
2019-03-24T15:12:38.951Z,11.41
2019-03-24T15:15:08.159Z,11.33
2019-03-24T15:17:37.465Z,11.27
2019-03-24T15:20:07.733Z,11.52
2019-03-24T15:22:36.930Z,11.85
2019-03-24T15:25:06.951Z,11.54
2019-03-24T15:27:36.016Z,11.46
2019-03-24T15:30:07.316Z,11.05
2019-03-24T15:32:36.845Z,10.52
2019-03-24T15:35:07.169Z,10.34
2019-03-24T15:37:36.458Z,10.42
2019-03-24T15:40:07.374Z,10.37
2019-03-24T15:42:36.674Z,10.04
2019-03-24T15:45:09.680Z,10.34
2019-03-24T15:47:40.436Z,10.51
2019-03-24T15:50:11.602Z,10.34
2019-03-24T15:52:42.416Z,10.36
2019-03-24T15:55:11.638Z,10.28
2019-03-24T15:57:40.871Z,10.67
2019-03-24T16:00:11.475Z,11.08
2019-03-24T16:02:42.029Z,11.12
2019-03-24T16:05:11.523Z,11.36
2019-03-24T16:07:42.376Z,11.60
2019-03-24T16:10:13.634Z,11.62
2019-03-24T16:12:42.767Z,11.48
2019-03-24T16:15:11.972Z,11.03
2019-03-24T16:17:41.211Z,11.06
2019-03-24T16:20:10.810Z,10.99
2019-03-24T16:22:40.041Z,11.24
2019-03-24T16:25:09.579Z,11.61
2019-03-24T16:27:38.841Z,11.87
2019-03-24T16:30:09.459Z,12.42
2019-03-24T16:32:38.705Z,12.49
2019-03-24T16:35:08.076Z,13.01
2019-03-24T16:37:37.295Z,13.67
2019-03-24T16:40:07.603Z,14.34
2019-03-24T16:42:36.800Z,14.73
2019-03-24T16:45:06.513Z,15.15
2019-03-24T16:47:35.843Z,15.66
2019-03-24T16:50:06.951Z,16.07
2019-03-24T16:52:36.160Z,16.27
2019-03-24T16:55:07.649Z,16.47
2019-03-24T16:57:36.811Z,16.72
2019-03-24T17:00:09.716Z,16.80
2019-03-24T17:02:41.440Z,17.03
2019-03-24T17:05:10.758Z,17.25
2019-03-24T17:07:40.002Z,17.53
2019-03-24T17:10:10.219Z,17.78
2019-03-24T17:12:39.461Z,18.25
2019-03-24T17:15:09.649Z,18.61
2019-03-24T17:17:38.988Z,18.75
2019-03-24T17:20:09.490Z,18.69
2019-03-24T17:22:38.637Z,18.60
2019-03-24T17:25:08.711Z,19.35
2019-03-24T17:27:38.345Z,19.25
2019-03-24T17:30:12.066Z,19.15
2019-03-24T17:32:41.254Z,19.47
2019-03-24T17:35:10.991Z,19.63
2019-03-24T17:37:40.220Z,19.86
2019-03-24T17:40:12.515Z,20.08
2019-03-24T17:42:41.693Z,20.67
2019-03-24T17:45:12.011Z,21.02
2019-03-24T17:47:42.804Z,21.56
2019-03-24T17:50:12.670Z,21.83
2019-03-24T17:52:41.961Z,22.62
2019-03-24T17:55:11.888Z,23.33
2019-03-24T17:57:41.136Z,23.41
2019-03-24T18:00:13.882Z,23.32
2019-03-24T18:02:43.168Z,23.46
2019-03-24T18:05:12.923Z,23.08
2019-03-24T18:07:42.196Z,23.01
2019-03-24T18:10:12.475Z,23.88
2019-03-24T18:12:43.211Z,23.74
2019-03-24T18:15:13.233Z,23.55
2019-03-24T18:17:43.322Z,23.20
2019-03-24T18:20:14.379Z,22.95
2019-03-24T18:22:43.754Z,22.78
2019-03-24T18:25:13.364Z,22.64
2019-03-24T18:27:42.599Z,22.93
2019-03-24T18:30:12.587Z,23.38
2019-03-24T18:32:42.062Z,24.09
2019-03-24T18:35:11.811Z,23.86
2019-03-24T18:37:41.163Z,23.50
2019-03-24T18:40:11.660Z,23.31
2019-03-24T18:42:41.061Z,23.47
2019-03-24T18:45:12.287Z,23.95
2019-03-24T18:47:41.637Z,24.32
2019-03-24T18:50:11.815Z,24.45
2019-03-24T18:52:41.037Z,24.51
2019-03-24T18:55:11.169Z,24.47
2019-03-24T18:57:40.554Z,24.33
2019-03-24T19:00:11.974Z,24.25
2019-03-24T19:02:42.689Z,24.32
2019-03-24T19:05:12.138Z,24.08
2019-03-24T19:07:41.477Z,24.09
2019-03-24T19:10:14.193Z,24.13
2019-03-24T19:12:43.488Z,24.05
2019-03-24T19:15:15.290Z,24.10
2019-03-24T19:17:44.603Z,24.32
2019-03-24T19:20:14.601Z,25.07
2019-03-24T19:22:43.897Z,25.51
2019-03-24T19:25:13.771Z,26.30
2019-03-24T19:27:43.005Z,26.67
2019-03-24T19:30:15.376Z,26.76
2019-03-24T19:32:44.669Z,26.15
2019-03-24T19:35:14.523Z,26.00
2019-03-24T19:37:45.973Z,25.59
2019-03-24T19:40:29.818Z,25.30
2019-03-24T19:42:59.163Z,25.41
2019-03-24T19:45:28.370Z,25.43
2019-03-24T19:47:57.684Z,25.45
2019-03-24T19:50:27.135Z,25.56
2019-03-24T19:52:56.440Z,26.02
2019-03-24T19:55:25.787Z,26.26
2019-03-24T19:57:55.467Z,26.27
2019-03-24T20:00:24.863Z,26.17
2019-03-24T20:02:54.229Z,25.87
2019-03-24T20:05:23.601Z,25.66
2019-03-24T20:07:52.984Z,25.58
2019-03-24T20:10:22.407Z,25.12
2019-03-24T20:12:51.768Z,24.87
2019-03-24T20:15:21.229Z,25.12
2019-03-24T20:17:50.851Z,25.56
2019-03-24T20:20:20.345Z,26.00
2019-03-24T20:22:56.460Z,26.47
2019-03-24T20:25:20.826Z,26.20
2019-03-24T20:27:50.126Z,25.68
2019-03-24T20:30:19.873Z,25.20
2019-03-24T20:32:49.132Z,24.62
2019-03-24T20:35:18.529Z,24.50
2019-03-24T20:37:47.940Z,24.23
2019-03-24T20:40:17.214Z,24.07
2019-03-24T20:42:46.501Z,23.93
2019-03-24T20:45:16.102Z,23.45
2019-03-24T20:47:45.767Z,23.38
2019-03-24T20:50:15.703Z,23.12
2019-03-24T20:52:45.121Z,23.14
2019-03-24T20:55:14.671Z,23.09
2019-03-24T20:57:44.021Z,23.11
2019-03-24T21:00:13.815Z,23.04
2019-03-24T21:02:43.170Z,23.23
2019-03-24T21:05:12.419Z,23.57
2019-03-24T21:07:41.669Z,23.82
2019-03-24T21:10:15.211Z,24.11
2019-03-24T21:12:44.427Z,24.26
2019-03-24T21:15:13.952Z,24.31
2019-03-24T21:17:43.289Z,24.62
2019-03-24T21:20:12.604Z,24.63
2019-03-24T21:22:41.932Z,24.77
2019-03-24T21:25:11.398Z,24.80
2019-03-24T21:27:40.642Z,24.92
2019-03-24T21:30:12.215Z,24.86
2019-03-24T21:32:41.587Z,24.72
2019-03-24T21:35:11.489Z,24.56
2019-03-24T21:37:40.700Z,24.69
2019-03-24T21:40:10.100Z,24.62
2019-03-24T21:42:39.388Z,24.49
2019-03-24T21:45:08.811Z,24.49
2019-03-24T21:47:38.118Z,24.46
2019-03-24T21:50:08.409Z,24.88
2019-03-24T21:52:37.627Z,25.05
2019-03-24T21:55:06.965Z,25.62
2019-03-24T21:57:36.244Z,25.28
2019-03-24T22:00:10.076Z,25.53
2019-03-24T22:02:39.304Z,25.00
2019-03-24T22:05:08.720Z,25.00
2019-03-24T22:07:37.941Z,25.08
2019-03-24T22:10:07.799Z,25.32
2019-03-24T22:12:37.074Z,25.54
2019-03-24T22:15:10.002Z,26.46
2019-03-24T22:17:39.231Z,26.18
2019-03-24T22:20:08.559Z,25.90
2019-03-24T22:22:37.695Z,25.47
2019-03-24T22:25:07.241Z,25.44
2019-03-24T22:27:36.476Z,25.51
2019-03-24T22:30:08.442Z,25.53
2019-03-24T22:32:37.685Z,25.49
2019-03-24T22:35:08.000Z,25.69
2019-03-24T22:37:37.204Z,25.78
2019-03-24T22:40:20.121Z,25.65
2019-03-24T22:42:49.267Z,25.67
2019-03-24T22:45:18.479Z,25.55
2019-03-24T22:47:48.014Z,25.76
2019-03-24T22:50:17.288Z,25.80
2019-03-24T22:52:46.563Z,26.16
2019-03-24T22:55:16.212Z,26.83
2019-03-24T22:57:45.398Z,27.25
2019-03-24T23:00:33.001Z,27.42
2019-03-24T23:03:02.136Z,27.44
2019-03-24T23:05:31.284Z,27.36
2019-03-24T23:08:00.536Z,27.32
2019-03-24T23:10:29.679Z,27.30
2019-03-24T23:12:58.824Z,27.55
2019-03-24T23:15:28.067Z,27.58
2019-03-24T23:17:57.417Z,27.52
2019-03-24T23:20:26.728Z,27.38
2019-03-24T23:22:55.981Z,27.21
2019-03-24T23:25:25.353Z,27.16
2019-03-24T23:27:54.553Z,26.84
2019-03-24T23:30:23.805Z,26.56
2019-03-24T23:32:53.126Z,26.28
2019-03-24T23:35:22.180Z,26.08
2019-03-24T23:37:51.553Z,26.06
2019-03-24T23:40:20.675Z,25.99
2019-03-24T23:42:49.825Z,26.02
2019-03-24T23:45:19.090Z,26.12
2019-03-24T23:47:48.215Z,26.52
2019-03-24T23:50:17.432Z,26.76
2019-03-24T23:52:46.729Z,26.79
2019-03-24T23:55:15.878Z,26.98
2019-03-24T23:57:45.028Z,27.04
